createdAt,value
2022-09-26T00:01:54.667Z,87.12
2022-09-26T00:04:43.128Z,87.14
2022-09-26T00:07:32.800Z,86.73
2022-09-26T00:10:21.200Z,86.53
2022-09-26T00:13:09.554Z,86.35
2022-09-26T00:15:58.537Z,86.15
2022-09-26T00:18:50.397Z,87.63
2022-09-26T00:21:39.329Z,87.71
2022-09-26T00:24:29.033Z,88.01
2022-09-26T00:27:17.416Z,87.76
2022-09-26T00:30:06.897Z,87.29
2022-09-26T00:32:55.255Z,86.64
2022-09-26T00:35:51.372Z,86.26
2022-09-26T00:38:40.657Z,86.00
2022-09-26T00:41:30.451Z,85.75
2022-09-26T00:44:46.360Z,85.50
2022-09-26T00:47:43.861Z,85.98
2022-09-26T00:50:37.539Z,86.08
2022-09-26T00:53:34.639Z,86.17
2022-09-26T00:56:27.700Z,86.37
2022-09-26T00:59:24.264Z,86.45
2022-09-26T01:02:12.922Z,86.31
2022-09-26T01:05:02.758Z,86.08
2022-09-26T01:07:53.646Z,85.76
2022-09-26T01:10:43.212Z,85.28
2022-09-26T01:13:34.302Z,85.00
2022-09-26T01:16:24.107Z,85.29
2022-09-26T01:19:23.864Z,85.36
2022-09-26T01:22:47.871Z,85.94
2022-09-26T01:25:57.514Z,86.46
2022-09-26T01:29:06.125Z,86.43
2022-09-26T01:32:22.790Z,86.32
2022-09-26T01:35:15.504Z,86.66
2022-09-26T01:38:17.686Z,86.54
2022-09-26T01:41:18.726Z,86.98
2022-09-26T01:44:16.938Z,87.90
2022-09-26T01:47:14.678Z,89.36
2022-09-26T01:50:14.153Z,90.28
2022-09-26T01:53:07.366Z,90.84
2022-09-26T01:56:02.239Z,89.59
2022-09-26T01:58:54.869Z,88.56
2022-09-26T02:01:46.292Z,88.77
2022-09-26T02:04:39.853Z,88.86
2022-09-26T02:07:35.336Z,88.32
2022-09-26T02:10:29.641Z,88.02
2022-09-26T02:13:23.147Z,87.38
2022-09-26T02:16:19.506Z,85.87
2022-09-26T02:19:13.809Z,86.03
2022-09-26T02:22:04.201Z,85.77
2022-09-26T02:24:53.857Z,87.21
2022-09-26T02:27:42.904Z,87.03
2022-09-26T02:30:31.733Z,86.85
2022-09-26T02:33:21.254Z,87.23
2022-09-26T02:36:11.812Z,87.01
2022-09-26T02:39:01.838Z,87.42
2022-09-26T02:42:10.261Z,87.69
2022-09-26T02:45:17.394Z,87.55
2022-09-26T02:48:29.015Z,87.00
2022-09-26T02:51:34.226Z,86.99
2022-09-26T02:54:32.431Z,86.90
2022-09-26T02:57:33.942Z,87.01
2022-09-26T03:00:25.769Z,86.29
2022-09-26T03:03:22.604Z,85.93
2022-09-26T03:06:18.018Z,85.24
2022-09-26T03:09:09.258Z,85.24
2022-09-26T03:12:03.362Z,85.37
2022-09-26T03:14:57.882Z,85.50
2022-09-26T03:17:53.065Z,86.62
2022-09-26T03:20:42.674Z,87.28
2022-09-26T03:23:31.518Z,87.42
2022-09-26T03:26:25.886Z,87.75
2022-09-26T03:29:20.026Z,87.29
2022-09-26T03:32:08.445Z,86.55
2022-09-26T03:34:58.303Z,86.25
2022-09-26T03:37:47.956Z,85.74
2022-09-26T03:40:37.950Z,85.86
2022-09-26T03:43:49.760Z,85.89
2022-09-26T03:46:40.354Z,85.90
2022-09-26T03:49:30.321Z,85.67
2022-09-26T03:52:18.853Z,85.93
2022-09-26T03:55:07.603Z,85.67
2022-09-26T03:57:57.515Z,85.92
2022-09-26T04:00:52.252Z,85.71
2022-09-26T04:03:49.998Z,85.52
2022-09-26T04:06:39.375Z,85.71
2022-09-26T04:09:28.213Z,85.80
2022-09-26T04:12:16.929Z,87.74
2022-09-26T04:15:07.706Z,87.45
2022-09-26T04:17:56.920Z,87.46
2022-09-26T04:20:47.585Z,87.20
2022-09-26T04:23:44.162Z,87.44
2022-09-26T04:26:32.948Z,87.31
2022-09-26T04:29:21.385Z,87.10
2022-09-26T04:32:19.653Z,87.12
2022-09-26T04:35:27.963Z,87.10
2022-09-26T04:38:18.746Z,86.75
2022-09-26T04:41:09.846Z,86.88
2022-09-26T04:43:59.655Z,86.70
2022-09-26T04:46:48.172Z,86.57
2022-09-26T04:49:37.300Z,86.35
2022-09-26T04:52:26.673Z,86.31
2022-09-26T04:55:16.643Z,86.42
2022-09-26T04:58:05.006Z,86.52
2022-09-26T05:00:53.371Z,85.91
2022-09-26T05:03:58.586Z,86.26
2022-09-26T05:06:49.978Z,85.91
2022-09-26T05:09:49.247Z,86.15
2022-09-26T05:12:41.164Z,85.88
2022-09-26T05:15:29.534Z,85.89
2022-09-26T05:18:17.900Z,85.41
2022-09-26T05:21:07.733Z,85.45
2022-09-26T05:24:13.623Z,85.46
2022-09-26T05:27:02.661Z,85.13
2022-09-26T05:29:57.091Z,84.98
2022-09-26T05:32:48.590Z,84.63
2022-09-26T05:35:38.421Z,85.33
2022-09-26T05:38:26.825Z,85.55
2022-09-26T05:41:14.588Z,85.33
2022-09-26T05:44:03.202Z,84.84
2022-09-26T05:46:53.882Z,85.16
2022-09-26T05:49:42.427Z,84.66
2022-09-26T05:52:34.638Z,84.77
2022-09-26T05:55:23.034Z,84.87
2022-09-26T05:58:32.262Z,85.13
2022-09-26T06:01:34.922Z,84.80
2022-09-26T06:04:34.647Z,84.82
2022-09-26T06:07:49.100Z,84.34
2022-09-26T06:11:01.403Z,84.73
2022-09-26T06:13:50.842Z,84.48
2022-09-26T06:16:39.384Z,84.16
2022-09-26T06:19:28.606Z,83.57
2022-09-26T06:22:18.282Z,84.19
2022-09-26T06:25:07.658Z,84.57
2022-09-26T06:27:59.925Z,84.48
2022-09-26T06:30:49.210Z,84.05
2022-09-26T06:33:51.412Z,83.89
2022-09-26T06:36:48.172Z,83.46
2022-09-26T06:39:37.958Z,83.35
2022-09-26T06:42:27.859Z,83.87
2022-09-26T06:45:34.866Z,84.02
2022-09-26T06:48:42.455Z,83.84
2022-09-26T06:51:42.660Z,83.68
2022-09-26T06:54:31.902Z,83.25
2022-09-26T06:57:21.933Z,83.59
2022-09-26T07:00:13.447Z,83.43
2022-09-26T07:03:26.784Z,83.48
2022-09-26T07:06:27.177Z,83.15
2022-09-26T07:09:17.230Z,82.51
2022-09-26T07:12:15.973Z,82.53
2022-09-26T07:15:07.512Z,82.31
2022-09-26T07:17:58.134Z,82.63
2022-09-26T07:21:07.559Z,82.54
2022-09-26T07:24:14.640Z,83.91
2022-09-26T07:27:04.204Z,83.63
2022-09-26T07:29:52.862Z,82.24
2022-09-26T07:32:47.916Z,82.88
2022-09-26T07:36:05.942Z,82.72
2022-09-26T07:38:54.399Z,82.72
2022-09-26T07:41:45.976Z,82.20
2022-09-26T07:48:02.466Z,81.10
2022-09-26T07:51:12.033Z,81.43
2022-09-26T07:54:09.609Z,80.61
2022-09-26T07:56:58.002Z,81.01
2022-09-26T07:59:59.560Z,81.25
2022-09-26T08:03:10.799Z,81.20
2022-09-26T08:06:01.639Z,80.81
2022-09-26T08:08:54.232Z,81.00
2022-09-26T08:12:02.415Z,80.97
2022-09-26T08:15:18.092Z,80.57
2022-09-26T08:18:07.254Z,80.46
2022-09-26T08:20:57.099Z,80.55
2022-09-26T08:23:46.911Z,80.58
2022-09-26T08:27:10.730Z,80.43
2022-09-26T08:30:04.520Z,80.93
2022-09-26T08:33:06.834Z,81.29
2022-09-26T08:36:05.143Z,81.49
2022-09-26T08:39:12.359Z,81.75
2022-09-26T08:42:34.519Z,82.26
2022-09-26T08:46:01.969Z,81.99
2022-09-26T08:49:17.409Z,82.29
2022-09-26T08:52:13.896Z,82.12
2022-09-26T08:55:07.202Z,82.38
2022-09-26T08:58:00.079Z,82.35
2022-09-26T09:00:52.722Z,82.26
2022-09-26T09:03:51.160Z,82.14
2022-09-26T09:06:39.609Z,82.67
2022-09-26T09:09:29.492Z,83.00
2022-09-26T09:12:49.279Z,83.17
2022-09-26T09:16:08.687Z,83.87
2022-09-26T09:19:42.370Z,83.71
2022-09-26T09:23:07.834Z,83.76
2022-09-26T09:29:49.397Z,83.52
2022-09-26T09:32:59.662Z,83.34
2022-09-26T09:36:22.151Z,83.91
2022-09-26T09:39:35.340Z,83.89
2022-09-26T09:42:44.559Z,83.81
2022-09-26T09:45:39.362Z,83.30
2022-09-26T09:48:29.038Z,84.29
2022-09-26T09:51:27.868Z,84.22
2022-09-26T09:54:40.153Z,84.40
2022-09-26T09:57:43.975Z,84.46
2022-09-26T10:00:37.093Z,84.99
2022-09-26T10:03:41.079Z,85.25
2022-09-26T10:06:45.417Z,85.63
2022-09-26T10:09:41.313Z,85.54
2022-09-26T10:12:51.438Z,85.54
2022-09-26T10:16:02.528Z,85.83
2022-09-26T10:19:13.321Z,86.04
2022-09-26T10:22:02.153Z,85.80
2022-09-26T10:24:51.644Z,85.84
2022-09-26T10:27:52.199Z,85.58
2022-09-26T10:30:50.097Z,85.11
2022-09-26T10:33:46.161Z,83.78
2022-09-26T10:36:38.184Z,83.68
2022-09-26T10:39:47.916Z,82.58
2022-09-26T10:42:38.291Z,81.87
2022-09-26T10:45:36.483Z,82.43
2022-09-26T10:49:03.232Z,83.42
2022-09-26T10:52:04.663Z,82.50
2022-09-26T10:54:59.793Z,81.54
2022-09-26T10:57:52.020Z,81.26
2022-09-26T11:00:45.565Z,80.47
2022-09-26T11:03:42.592Z,81.36
2022-09-26T11:06:51.412Z,80.79
2022-09-26T11:09:52.446Z,80.57
2022-09-26T11:13:18.907Z,79.82
2022-09-26T11:16:15.652Z,80.58
2022-09-26T11:19:16.001Z,79.79
2022-09-26T11:22:14.370Z,80.54
2022-09-26T11:25:08.916Z,80.06
2022-09-26T11:28:07.195Z,80.02
2022-09-26T11:31:28.509Z,79.78
2022-09-26T11:34:43.277Z,79.09
2022-09-26T11:37:43.368Z,77.92
2022-09-26T11:40:44.000Z,76.73
2022-09-26T11:43:45.593Z,77.22
2022-09-26T11:46:56.632Z,74.94
2022-09-26T11:50:26.840Z,73.42
2022-09-26T11:53:55.870Z,74.69
2022-09-26T11:56:55.219Z,73.75
2022-09-26T12:00:06.354Z,73.53
2022-09-26T12:03:36.338Z,73.76
2022-09-26T12:06:33.689Z,70.39
2022-09-26T12:09:42.286Z,67.91
2022-09-26T12:12:41.974Z,71.32
2022-09-26T12:15:37.876Z,69.63
2022-09-26T12:18:36.207Z,70.57
2022-09-26T12:22:02.966Z,69.82
2022-09-26T12:25:17.857Z,67.82
2022-09-26T12:28:25.254Z,66.75
2022-09-26T12:31:21.284Z,67.87
2022-09-26T12:34:29.544Z,66.98
2022-09-26T12:37:46.055Z,66.02
2022-09-26T12:40:39.640Z,65.47
2022-09-26T12:43:56.704Z,65.86
2022-09-26T12:47:03.487Z,65.10
2022-09-26T12:50:11.621Z,66.00
2022-09-26T12:53:20.722Z,67.72
2022-09-26T12:56:11.282Z,65.62
2022-09-26T12:59:16.668Z,66.49
2022-09-26T13:02:33.715Z,66.05
2022-09-26T13:05:50.443Z,67.17
2022-09-26T13:08:53.299Z,67.47
2022-09-26T13:11:53.408Z,65.53
2022-09-26T13:15:01.419Z,63.97
2022-09-26T13:17:55.217Z,64.25
2022-09-26T13:20:51.110Z,63.51
2022-09-26T13:23:44.802Z,63.32
2022-09-26T13:26:38.787Z,63.87
2022-09-26T13:29:33.829Z,63.83
2022-09-26T13:32:27.840Z,64.41
2022-09-26T13:35:20.951Z,64.83
2022-09-26T13:38:25.381Z,64.24
2022-09-26T13:41:29.647Z,63.88
2022-09-26T13:44:32.286Z,64.62
2022-09-26T13:47:33.762Z,63.65
2022-09-26T13:50:27.186Z,64.85
2022-09-26T13:53:27.135Z,65.18
2022-09-26T13:56:44.249Z,64.79
2022-09-26T13:59:36.045Z,65.34
2022-09-26T14:02:28.527Z,64.92
2022-09-26T14:05:45.772Z,65.63
2022-09-26T14:08:55.577Z,62.89
2022-09-26T14:11:49.865Z,66.24
2022-09-26T14:14:46.439Z,61.92
2022-09-26T14:18:17.182Z,60.61
2022-09-26T14:21:29.172Z,60.68
2022-09-26T14:24:41.605Z,60.24
2022-09-26T14:27:44.354Z,60.00
2022-09-26T14:30:33.474Z,60.29
2022-09-26T14:33:25.306Z,59.12
2022-09-26T14:36:28.740Z,58.82
2022-09-26T14:39:33.436Z,58.96
2022-09-26T14:42:27.964Z,59.95
2022-09-26T14:45:23.197Z,59.81
2022-09-26T14:48:18.706Z,59.74
2022-09-26T14:51:27.348Z,59.86
2022-09-26T14:54:23.700Z,60.10
2022-09-26T14:57:21.999Z,59.82
2022-09-26T15:00:37.154Z,59.49
2022-09-26T15:03:25.569Z,60.30
2022-09-26T15:06:15.177Z,59.66
2022-09-26T15:09:11.368Z,60.33
2022-09-26T15:12:02.324Z,61.56
2022-09-26T15:14:55.482Z,63.06
2022-09-26T15:17:50.570Z,63.98
2022-09-26T15:20:45.869Z,63.22
2022-09-26T15:23:35.908Z,62.61
2022-09-26T15:26:27.533Z,62.01
2022-09-26T15:29:17.415Z,63.59
2022-09-26T15:32:06.945Z,63.59
2022-09-26T15:34:58.111Z,63.34
2022-09-26T15:37:46.718Z,62.95
2022-09-26T15:40:35.172Z,63.20
2022-09-26T15:43:22.690Z,63.21
2022-09-26T15:46:23.673Z,63.58
2022-09-26T15:49:15.183Z,64.61
2022-09-26T15:52:06.305Z,63.83
2022-09-26T15:54:55.186Z,65.47
2022-09-26T15:57:44.360Z,66.83
2022-09-26T16:00:36.665Z,67.66
2022-09-26T16:03:45.491Z,68.59
2022-09-26T16:06:35.500Z,69.28
2022-09-26T16:09:32.501Z,70.38
2022-09-26T16:12:23.735Z,71.98
2022-09-26T16:15:17.868Z,72.38
2022-09-26T16:18:07.077Z,72.40
2022-09-26T16:21:16.187Z,72.51
2022-09-26T16:24:28.088Z,73.17
2022-09-26T16:27:24.571Z,73.62
2022-09-26T16:30:37.721Z,74.13
2022-09-26T16:33:32.231Z,74.73
2022-09-26T16:36:23.582Z,75.21
2022-09-26T16:39:21.154Z,75.53
2022-09-26T16:42:17.887Z,75.68
2022-09-26T16:45:15.126Z,76.50
2022-09-26T16:48:04.505Z,76.78
2022-09-26T16:51:13.656Z,76.92
2022-09-26T16:54:20.824Z,77.43
2022-09-26T16:57:17.761Z,77.83
2022-09-26T17:00:33.786Z,77.74
2022-09-26T17:03:25.211Z,78.58
2022-09-26T17:06:13.485Z,79.11
2022-09-26T17:09:08.912Z,79.01
2022-09-26T17:12:00.179Z,79.12
2022-09-26T17:14:52.143Z,79.92
2022-09-26T17:17:41.928Z,79.93
2022-09-26T17:20:30.719Z,79.94
2022-09-26T17:23:39.520Z,80.13
2022-09-26T17:26:28.190Z,80.17
2022-09-26T17:29:21.172Z,80.52
2022-09-26T17:32:13.650Z,80.42
2022-09-26T17:35:05.709Z,80.86
2022-09-26T17:37:54.748Z,80.90
2022-09-26T17:40:45.874Z,80.81
2022-09-26T17:43:35.239Z,80.79
2022-09-26T17:46:23.868Z,80.80
2022-09-26T17:49:16.884Z,81.01
2022-09-26T17:52:24.056Z,81.63
2022-09-26T17:55:13.047Z,82.36
2022-09-26T17:58:02.635Z,81.94
2022-09-26T18:00:52.865Z,82.01
2022-09-26T18:03:41.203Z,81.89
2022-09-26T18:06:33.201Z,81.85
2022-09-26T18:09:23.439Z,82.15
2022-09-26T18:12:17.648Z,82.12
2022-09-26T18:15:06.652Z,82.33
2022-09-26T18:17:55.238Z,82.27
2022-09-26T18:20:45.617Z,83.12
2022-09-26T18:23:42.534Z,82.70
2022-09-26T18:26:34.620Z,82.84
2022-09-26T18:29:30.021Z,83.06
2022-09-26T18:32:26.642Z,83.07
2022-09-26T18:35:17.095Z,83.67
2022-09-26T18:38:05.558Z,83.54
2022-09-26T18:40:55.996Z,83.29
2022-09-26T18:43:46.872Z,83.26
2022-09-26T18:46:36.585Z,83.44
2022-09-26T18:49:26.824Z,83.43
2022-09-26T18:52:17.594Z,83.36
2022-09-26T18:55:31.832Z,84.35
2022-09-26T18:58:26.703Z,84.63
2022-09-26T19:01:22.704Z,85.22
2022-09-26T19:04:14.937Z,85.28
2022-09-26T19:07:08.612Z,86.06
2022-09-26T19:09:57.345Z,85.70
2022-09-26T19:12:45.806Z,86.37
2022-09-26T19:15:34.462Z,86.90
2022-09-26T19:18:24.359Z,87.20
2022-09-26T19:21:19.273Z,87.09
2022-09-26T19:24:21.265Z,87.58
2022-09-26T19:27:15.219Z,87.26
2022-09-26T19:30:06.439Z,87.73
2022-09-26T19:32:57.632Z,87.98
2022-09-26T19:35:47.604Z,88.29
2022-09-26T19:38:36.062Z,88.04
2022-09-26T19:41:24.447Z,88.90
2022-09-26T19:44:13.406Z,90.02
2022-09-26T19:47:03.214Z,89.21
2022-09-26T19:49:53.566Z,89.14
2022-09-26T19:52:43.589Z,88.73
2022-09-26T19:55:32.729Z,88.73
2022-09-26T19:58:23.593Z,89.35
2022-09-26T20:01:16.810Z,90.46
2022-09-26T20:04:05.308Z,90.33
2022-09-26T20:06:53.768Z,90.46
2022-09-26T20:09:43.942Z,90.26
2022-09-26T20:12:32.361Z,90.36
2022-09-26T20:15:21.275Z,90.18
2022-09-26T20:18:14.233Z,89.92
2022-09-26T20:21:02.646Z,89.42
2022-09-26T20:23:51.034Z,89.43
2022-09-26T20:26:42.719Z,88.95
2022-09-26T20:29:51.114Z,88.75
2022-09-26T20:32:40.807Z,88.85
2022-09-26T20:35:35.127Z,89.68
2022-09-26T20:38:30.651Z,89.34
2022-09-26T20:41:24.350Z,89.70
2022-09-26T20:44:18.037Z,91.05
2022-09-26T20:47:06.662Z,91.63
2022-09-26T20:49:59.156Z,91.58
2022-09-26T20:52:47.651Z,92.38
2022-09-26T20:55:36.763Z,92.44
2022-09-26T20:58:26.352Z,92.29
2022-09-26T21:01:17.529Z,92.63
2022-09-26T21:04:06.409Z,92.63
2022-09-26T21:06:54.737Z,92.71
2022-09-26T21:09:43.128Z,93.66
2022-09-26T21:12:31.425Z,94.16
2022-09-26T21:15:20.125Z,93.40
2022-09-26T21:18:22.608Z,91.83
2022-09-26T21:21:22.293Z,91.99
2022-09-26T21:24:32.330Z,96.96
2022-09-26T21:27:21.143Z,100.00
2022-09-26T21:30:14.657Z,100.00
2022-09-26T21:33:03.023Z,100.00
2022-09-26T21:35:53.110Z,100.00
2022-09-26T21:38:41.423Z,98.28
2022-09-26T21:41:29.978Z,95.80
2022-09-26T21:44:23.399Z,95.34
2022-09-26T21:47:11.775Z,94.79
2022-09-26T21:50:00.322Z,94.48
2022-09-26T21:52:52.420Z,95.01
2022-09-26T21:55:46.651Z,94.25
2022-09-26T21:58:39.120Z,93.29
2022-09-26T22:01:27.513Z,94.43
2022-09-26T22:04:15.881Z,97.58
2022-09-26T22:07:04.275Z,100.00
2022-09-26T22:09:53.985Z,100.00
2022-09-26T22:12:42.355Z,100.00
2022-09-26T22:15:30.979Z,100.00
2022-09-26T22:18:19.310Z,100.00
2022-09-26T22:21:08.214Z,100.00
2022-09-26T22:23:56.509Z,100.00
2022-09-26T22:26:46.385Z,99.81
2022-09-26T22:29:34.824Z,97.25
2022-09-26T22:32:23.373Z,95.47
2022-09-26T22:35:11.805Z,94.98
2022-09-26T22:38:00.077Z,93.94
2022-09-26T22:40:57.157Z,94.25
2022-09-26T22:43:49.237Z,93.89
2022-09-26T22:46:38.446Z,93.35
2022-09-26T22:49:26.971Z,92.61
2022-09-26T22:52:15.294Z,93.21
2022-09-26T22:55:03.698Z,93.31
2022-09-26T22:57:52.154Z,92.63
2022-09-26T23:00:41.909Z,92.45
2022-09-26T23:03:30.183Z,92.25
2022-09-26T23:06:18.736Z,92.60
2022-09-26T23:09:07.227Z,92.08
2022-09-26T23:11:55.586Z,91.52
2022-09-26T23:14:43.933Z,91.22
2022-09-26T23:17:33.634Z,91.08
2022-09-26T23:20:22.145Z,91.58
2022-09-26T23:23:11.494Z,90.97
2022-09-26T23:25:59.955Z,90.70
2022-09-26T23:28:48.301Z,90.55
2022-09-26T23:31:36.748Z,90.75
2022-09-26T23:34:26.610Z,90.72
2022-09-26T23:37:14.991Z,91.03
2022-09-26T23:40:03.820Z,90.57
2022-09-26T23:42:52.179Z,88.91
2022-09-26T23:45:42.005Z,88.90
2022-09-26T23:48:30.519Z,89.33
2022-09-26T23:51:20.270Z,88.46
2022-09-26T23:54:08.810Z,89.14
2022-09-26T23:56:57.162Z,90.10
2022-09-26T23:59:45.542Z,90.75
